< Typhoon 198111 1981 Season Typhoon 198113 >
Typhoon 198112 (PHYLLIS)
General InformationTrack Information on Google MapsDetailed Wind InformationList of All Images || NewsDisaster Info.ResourceGoogle EarthGE AnimationAtom FeedGeoJSON
Detalied Best Track (Time Zone = UTC)
Year Month Day Hour Lat. Long. Pressure (hPa) Wind (kt) Class Image Chart
1981 8 2 06 23.0 147.0 996 0 2 Image Chart
1981 8 2 12 24.0 146.5 992 0 2 Image Chart
1981 8 2 18 25.0 146.5 990 0 2 Image Chart
1981 8 3 00 26.5 146.5 985 45 3 Image Chart
1981 8 3 06 27.8 146.5 985 45 3 Image Chart
1981 8 3 12 29.1 146.2 980 45 3 Image Chart
1981 8 3 18 30.4 145.8 980 45 3 Image Chart
1981 8 4 00 31.6 145.4 980 45 3 Image Chart
1981 8 4 06 33.0 145.3 980 45 3 Image Chart
1981 8 4 12 34.2 145.3 980 45 3 Image Chart
1981 8 4 18 35.5 145.0 980 45 3 Image Chart
1981 8 5 00 36.5 145.0 980 45 3 Image Chart
1981 8 5 06 38.5 145.3 975 55 4 Image Chart
1981 8 5 12 40.5 145.7 980 50 4 Image Chart
1981 8 5 18 42.7 145.0 980 0 6 Image Chart
1981 8 6 00 46.8 142.5 984 0 6 Image Chart
1981 8 6 06 48.0 138.0 984 0 6 Image Chart
1981 8 6 12 49.0 135.0 986 0 6 Image Chart
1981 8 6 18 49.0 134.0 988 0 6 Image Chart
1981 8 7 00 49.0 133.7 990 0 6 Image Chart
1981 8 7 06 49.0 133.0 992 0 6 Image Chart
1981 8 7 12 49.0 132.0 994 0 6 Image Chart
1981 8 7 18 48.0 130.0 996 0 6 Image Chart
1981 8 8 00 49.0 130.0 996 0 6 Image Chart
1981 8 8 06 50.0 130.0 996 0 6 Image Chart
Japan Meteorological Agency Best Track Data | Correction Date : 1992-10-21
< Typhoon 198111 1981 Season Typhoon 198113 >

Help